CheckWX is a tool to help pilots better visualize weather data.  It is not intended as a substitute for an official pre-flight weather briefing.

23:47:14 UTC

KPBH METAR
Price County Airport
Phillips, Wisconsin, USA
Current

32 mins ago

KPBH 182315Z AUTO 15010G14KT 10SM CLR 12/05 A2973 RMK AO2 T01150047
Observed
Oct-18 @ 23:15 UTC
Wind
  • 150° at 10 KTS
  • Gusting to 14 KTS
Visibility
10 SM
Flight Rules
VFR
Cloud Levels
  • Clear skies
Temperature
12°C / 54°F
Dewpoint
C / 41°F
Humidity
63%
Altimeter
29.73" Hg
Pressure
1006.82 hPa
Previous

52 mins ago

KPBH 182255Z AUTO 16011G19KT 10SM CLR 12/05 A2973 RMK AO2 T01220046
Observed
Oct-18 @ 22:55 UTC
Wind
  • 160° at 11 KTS
  • Gusting to 19 KTS
Visibility
10 SM
Flight Rules
VFR
Cloud Levels
  • Clear skies
Temperature
12°C / 54°F
Dewpoint
C / 41°F
Humidity
63%
Altimeter
29.73" Hg
Pressure
1006.82 hPa
Previous

2 hours ago

KPBH 182215Z AUTO 16014G19KT 10SM CLR 13/05 A2974 RMK AO2 T01280049
Observed
Oct-18 @ 22:15 UTC
Wind
  • 160° at 14 KTS
  • Gusting to 19 KTS
Visibility
10 SM
Flight Rules
VFR
Cloud Levels
  • Clear skies
Temperature
13°C / 55°F
Dewpoint
C / 41°F
Humidity
59%
Altimeter
29.74" Hg
Pressure
1007.12 hPa